Time;durP1;ratioP1;P1;durP2;ratioP2;P2;SDS_P1;SDS_P2;PMS_P1;PMS_P2;Temp;Humidity;BMP_temperature;BMP_pressure;BME280_temperature;BME280_humidity;BME280_pressure;Samples;Min_cycle;Max_cycle;Signal;HPM_P1;HPM_P2
2023/05/28 00:00:34;;;;;;;19.02;5.10;;;13.10;99.90;;;;;;6251106;23;20031;-63
2023/05/28 00:03:00;;;;;;;11.73;4.72;;;13.10;99.90;;;;;;6249843;23;20027;-62
2023/05/28 00:05:26;;;;;;;12.55;4.75;;;13.10;99.90;;;;;;6251668;23;20429;-62
2023/05/28 00:07:52;;;;;;;13.55;4.72;;;13.10;99.90;;;;;;6249455;23;20376;-62
2023/05/28 00:10:17;;;;;;;15.63;5.00;;;13.00;99.90;;;;;;6251020;23;20154;-62
2023/05/28 00:12:43;;;;;;;16.35;4.72;;;13.00;99.90;;;;;;6249230;23;20030;-62
2023/05/28 00:15:09;;;;;;;10.77;3.85;;;13.00;99.90;;;;;;6250808;23;20024;-62
2023/05/28 00:17:35;;;;;;;14.48;4.53;;;13.00;99.90;;;;;;6250006;23;20141;-62
2023/05/28 00:20:01;;;;;;;14.23;4.63;;;13.00;99.90;;;;;;6249291;23;20023;-62
2023/05/28 00:22:26;;;;;;;11.90;4.70;;;12.90;99.90;;;;;;6250632;23;20479;-62
2023/05/28 00:24:52;;;;;;;17.33;4.93;;;12.80;99.90;;;;;;6247979;23;20020;-63
2023/05/28 00:27:18;;;;;;;12.27;4.93;;;12.80;99.90;;;;;;6250508;23;20020;-61
2023/05/28 00:29:43;;;;;;;14.60;4.90;;;12.70;99.90;;;;;;6248256;23;20024;-62
2023/05/28 00:32:09;;;;;;;17.30;4.53;;;12.70;99.90;;;;;;6250211;23;20052;-62
2023/05/28 00:34:35;;;;;;;12.48;4.25;;;12.60;99.90;;;;;;6248773;23;20031;-63
2023/05/28 00:37:01;;;;;;;18.60;5.15;;;12.60;99.90;;;;;;6222691;23;20114;-63
2023/05/28 00:39:27;;;;;;;8.93;3.85;;;12.60;99.90;;;;;;6250497;23;20039;-62
2023/05/28 00:42:10;;;;;;;14.48;4.95;;;12.50;99.90;;;;;;6248499;23;20040;-63
2023/05/28 00:44:36;;;;;;;18.15;4.90;;;12.50;99.90;;;;;;6224743;23;20288;-63
2023/05/28 00:47:02;;;;;;;11.52;4.75;;;12.50;99.90;;;;;;6250676;23;20020;-63
2023/05/28 00:49:28;;;;;;;10.18;5.05;;;12.40;99.90;;;;;;6252508;23;20052;-63
2023/05/28 00:51:56;;;;;;;7.80;4.45;;;12.30;99.90;;;;;;6251786;23;20027;-63
2023/05/28 00:54:25;;;;;;;12.63;5.03;;;12.40;99.90;;;;;;6251116;23;20024;-63
2023/05/28 00:56:53;;;;;;;16.85;4.57;;;12.30;99.90;;;;;;6252643;23;20012;-63
2023/05/28 00:59:21;;;;;;;14.48;5.60;;;12.30;99.90;;;;;;6250360;23;20070;-63
2023/05/28 01:01:47;;;;;;;17.67;5.32;;;12.40;99.90;;;;;;6252731;23;20016;-62
2023/05/28 01:04:13;;;;;;;14.93;5.50;;;12.30;99.90;;;;;;6250832;23;20543;-63
2023/05/28 01:06:39;;;;;;;11.95;4.75;;;12.30;99.90;;;;;;6252352;23;20030;-63
2023/05/28 01:09:07;;;;;;;14.55;4.75;;;12.30;99.90;;;;;;6252163;23;20012;-64
2023/05/28 01:11:35;;;;;;;16.80;5.07;;;12.30;99.90;;;;;;6251173;23;20023;-63
2023/05/28 01:14:02;;;;;;;14.43;4.65;;;12.20;99.90;;;;;;6252898;23;20548;-63
2023/05/28 01:16:28;;;;;;;15.57;5.22;;;12.20;99.90;;;;;;6250670;23;20070;-63
2023/05/28 01:18:57;;;;;;;12.18;5.25;;;12.20;99.90;;;;;;6252978;23;20012;-63
2023/05/28 01:21:25;;;;;;;14.43;5.65;;;12.20;99.90;;;;;;6250764;23;20063;-62
2023/05/28 01:23:52;;;;;;;11.68;4.45;;;12.10;99.90;;;;;;6225362;23;20051;-63
2023/05/28 01:26:18;;;;;;;14.52;5.18;;;12.10;99.90;;;;;;6252534;23;20013;-63
2023/05/28 01:28:48;;;;;;;15.98;5.32;;;12.10;99.90;;;;;;6251182;23;20087;-63
2023/05/28 01:31:14;;;;;;;13.93;5.13;;;12.10;99.90;;;;;;6252913;23;20016;-63
2023/05/28 01:33:41;;;;;;;21.50;5.50;;;12.00;99.90;;;;;;6250692;23;20024;-63
2023/05/28 01:36:15;;;;;;;13.85;5.57;;;12.00;99.90;;;;;;6252540;23;20425;-63
2023/05/28 01:38:43;;;;;;;11.50;4.97;;;12.10;99.90;;;;;;6251482;23;20031;-63
2023/05/28 01:41:09;;;;;;;11.25;4.53;;;12.00;99.90;;;;;;6252288;23;20020;-63
2023/05/28 01:43:35;;;;;;;14.40;5.90;;;11.90;99.90;;;;;;6253010;23;20175;-63
2023/05/28 01:46:02;;;;;;;15.65;5.60;;;11.90;99.90;;;;;;6250765;23;20100;-62
2023/05/28 01:48:29;;;;;;;14.80;6.30;;;11.90;99.90;;;;;;6252911;23;20020;-63
2023/05/28 01:50:55;;;;;;;13.57;4.40;;;12.00;99.90;;;;;;6250426;23;20020;-62
2023/05/28 01:53:21;;;;;;;16.50;5.57;;;11.90;99.90;;;;;;6252797;23;20042;-63
2023/05/28 01:55:47;;;;;;;17.80;5.20;;;11.90;99.90;;;;;;6251088;23;20043;-63
2023/05/28 01:58:12;;;;;;;13.32;5.30;;;11.70;99.90;;;;;;6252139;23;20027;-62
2023/05/28 02:00:46;;;;;;;15.23;4.38;;;11.80;99.90;;;;;;6252239;23;20047;-62
2023/05/28 02:03:12;;;;;;;15.85;7.10;;;11.80;99.90;;;;;;6250694;23;20789;-63
2023/05/28 02:05:38;;;;;;;13.98;5.35;;;11.80;99.90;;;;;;6252233;23;20043;-63
2023/05/28 02:08:04;;;;;;;16.63;5.55;;;11.70;99.90;;;;;;6250224;23;20054;-62
2023/05/28 02:10:30;;;;;;;16.48;7.55;;;11.80;99.90;;;;;;6252428;23;20020;-62
2023/05/28 02:12:55;;;;;;;12.13;5.13;;;11.70;99.90;;;;;;6250966;23;20016;-62
2023/05/28 02:15:21;;;;;;;13.45;5.70;;;11.70;99.90;;;;;;6252120;23;20039;-63
2023/05/28 02:17:47;;;;;;;18.58;5.25;;;11.80;99.90;;;;;;6252094;23;20028;-63
2023/05/28 02:20:13;;;;;;;12.73;5.40;;;11.70;99.90;;;;;;6250266;23;20027;-63
2023/05/28 02:22:39;;;;;;;13.40;5.43;;;11.70;99.90;;;;;;6251949;23;20027;-63
2023/05/28 02:25:05;;;;;;;17.13;5.30;;;11.70;99.90;;;;;;6249879;23;20054;-63
2023/05/28 02:27:31;;;;;;;12.20;5.03;;;11.70;99.90;;;;;;6252302;23;20043;-63
2023/05/28 02:29:57;;;;;;;15.70;5.97;;;11.70;99.90;;;;;;6250391;23;20024;-62
2023/05/28 02:32:23;;;;;;;14.48;4.78;;;11.60;99.90;;;;;;6251454;23;20027;-61
2023/05/28 02:34:49;;;;;;;11.93;5.28;;;11.60;99.90;;;;;;6251473;23;20024;-62
2023/05/28 02:37:15;;;;;;;16.20;5.53;;;11.60;99.90;;;;;;6250237;23;20016;-62
2023/05/28 02:39:41;;;;;;;15.90;5.90;;;11.60;99.90;;;;;;6224750;23;20031;-63
2023/05/28 02:42:07;;;;;;;14.48;5.53;;;11.70;99.90;;;;;;6250184;23;20031;-63
2023/05/28 02:44:33;;;;;;;17.92;6.05;;;11.70;99.90;;;;;;6252298;23;20024;-63
2023/05/28 02:46:59;;;;;;;17.75;5.97;;;11.70;99.90;;;;;;6249974;23;20077;-63
2023/05/28 02:49:25;;;;;;;14.10;5.22;;;11.60;99.90;;;;;;6251658;23;20078;-63
2023/05/28 02:51:50;;;;;;;17.00;5.82;;;11.70;99.90;;;;;;6250994;23;20023;-62
2023/05/28 02:54:16;;;;;;;13.60;5.57;;;11.70;99.90;;;;;;6250517;23;20031;-63
2023/05/28 02:56:42;;;;;;;16.55;5.65;;;11.60;99.90;;;;;;6252150;23;20049;-63
2023/05/28 02:59:07;;;;;;;10.43;5.55;;;11.70;99.90;;;;;;6249765;23;20026;-62
2023/05/28 03:01:33;;;;;;;20.35;6.90;;;11.70;99.90;;;;;;6252019;23;20020;-63
2023/05/28 03:03:59;;;;;;;16.08;5.70;;;11.70;99.90;;;;;;6249622;23;20023;-62
2023/05/28 03:06:24;;;;;;;15.32;6.35;;;11.70;99.90;;;;;;6251364;23;20094;-62
2023/05/28 03:08:50;;;;;;;10.68;5.43;;;11.70;99.90;;;;;;6250936;23;20023;-62
2023/05/28 03:11:16;;;;;;;21.13;7.03;;;11.70;99.90;;;;;;6251016;23;20684;-63
2023/05/28 03:13:41;;;;;;;15.45;5.22;;;11.60;99.90;;;;;;6252096;23;20024;-63
2023/05/28 03:16:07;;;;;;;15.43;6.85;;;11.60;99.90;;;;;;6249860;23;20024;-63
2023/05/28 03:18:33;;;;;;;17.85;6.38;;;11.60;99.90;;;;;;6251625;23;20032;-62
2023/05/28 03:20:58;;;;;;;11.88;5.43;;;11.60;99.90;;;;;;6249889;23;20059;-63
2023/05/28 03:23:24;;;;;;;19.45;5.68;;;11.70;99.90;;;;;;6251610;23;20050;-63
2023/05/28 03:25:50;;;;;;;15.30;6.05;;;11.70;99.90;;;;;;6250221;23;20075;-63
2023/05/28 03:28:15;;;;;;;13.48;5.57;;;11.70;99.90;;;;;;6250898;23;20437;-63
2023/05/28 03:30:42;;;;;;;12.07;6.15;;;11.70;99.90;;;;;;6251423;23;20058;-63
2023/05/28 03:33:07;;;;;;;12.98;5.40;;;11.60;99.90;;;;;;6248816;23;20076;-63
2023/05/28 03:35:33;;;;;;;14.30;5.78;;;11.70;99.90;;;;;;6251476;23;20024;-62
2023/05/28 03:37:59;;;;;;;15.43;5.45;;;11.60;99.90;;;;;;6249230;23;20422;-63
2023/05/28 03:40:25;;;;;;;14.98;5.57;;;11.70;99.90;;;;;;6251253;23;20091;-63
2023/05/28 03:42:51;;;;;;;11.57;5.30;;;11.60;99.90;;;;;;6249333;23;20073;-63
2023/05/28 03:45:17;;;;;;;15.55;5.65;;;11.60;99.90;;;;;;6250879;23;20066;-63
2023/05/28 03:47:43;;;;;;;18.13;6.30;;;11.60;99.90;;;;;;6223484;23;20303;-63
2023/05/28 03:50:09;;;;;;;14.77;5.55;;;11.70;99.90;;;;;;6249577;23;20398;-62
2023/05/28 03:52:35;;;;;;;17.55;5.53;;;11.70;99.90;;;;;;6251382;23;20023;-62
2023/05/28 03:55:01;;;;;;;17.70;6.38;;;11.70;99.90;;;;;;6248962;23;20320;-62
2023/05/28 03:57:26;;;;;;;20.05;6.18;;;11.70;99.90;;;;;;6251318;23;20032;-62
2023/05/28 03:59:55;;;;;;;20.10;5.50;;;11.70;99.90;;;;;;6249707;23;20024;-62
2023/05/28 04:02:21;;;;;;;14.73;6.10;;;11.70;99.90;;;;;;6250418;23;20040;-63
2023/05/28 04:04:47;;;;;;;15.10;6.93;;;11.70;99.90;;;;;;6251156;23;20104;-62
2023/05/28 04:07:12;;;;;;;17.60;6.00;;;11.70;99.90;;;;;;6249984;23;20012;-62
2023/05/28 04:09:38;;;;;;;11.18;5.60;;;11.80;99.90;;;;;;6251361;23;20442;-63
2023/05/28 04:12:04;;;;;;;20.77;7.10;;;11.80;99.90;;;;;;6249550;23;20016;-62
2023/05/28 04:14:30;;;;;;;16.65;5.68;;;11.80;99.90;;;;;;6251832;23;20071;-62
2023/05/28 04:16:57;;;;;;;14.68;5.25;;;11.80;99.90;;;;;;6248975;23;20030;-65
2023/05/28 04:19:23;;;;;;;14.43;5.90;;;11.70;99.90;;;;;;6259411;23;20016;-64
2023/05/28 04:21:49;;;;;;;12.45;5.72;;;11.70;99.90;;;;;;6268328;23;20044;-65
2023/05/28 04:24:15;;;;;;;16.85;6.32;;;11.70;99.90;;;;;;6255061;23;20047;-65
2023/05/28 04:26:41;;;;;;;14.90;5.32;;;11.70;99.90;;;;;;6256941;23;20020;-66
2023/05/28 04:29:07;;;;;;;18.10;6.53;;;11.80;99.90;;;;;;6253526;23;20019;-67
2023/05/28 04:34:05;;;;;;;18.33;5.95;;;11.70;99.90;;;;;;6194218;23;20269;-63
2023/05/28 04:36:33;;;;;;;20.70;6.40;;;11.80;99.90;;;;;;6193832;23;20021;-65
2023/05/28 04:39:01;;;;;;;11.23;4.93;;;11.80;99.90;;;;;;6192811;23;20090;-63
2023/05/28 04:41:27;;;;;;;13.90;5.32;;;11.80;99.90;;;;;;6194290;23;20024;-62
2023/05/28 04:43:52;;;;;;;11.75;5.88;;;11.80;99.90;;;;;;6191898;23;20041;-62
2023/05/28 04:46:18;;;;;;;17.17;6.15;;;11.80;99.90;;;;;;6193782;23;20028;-65
2023/05/28 04:48:45;;;;;;;14.23;5.40;;;11.80;99.90;;;;;;6192016;23;20021;-66
2023/05/28 04:51:11;;;;;;;16.17;5.78;;;11.80;99.90;;;;;;6194016;23;20021;-64
2023/05/28 04:53:37;;;;;;;14.48;5.50;;;11.90;99.90;;;;;;6193294;23;20020;-64
2023/05/28 04:56:03;;;;;;;12.98;5.80;;;11.90;99.90;;;;;;6192440;23;20017;-63
2023/05/28 04:58:29;;;;;;;12.10;5.22;;;12.10;99.90;;;;;;6193727;23;20069;-64
2023/05/28 05:00:55;;;;;;;12.18;4.50;;;12.20;99.90;;;;;;6191853;23;20017;-63
2023/05/28 05:03:21;;;;;;;15.88;5.18;;;12.20;99.90;;;;;;6193879;23;20054;-63
2023/05/28 05:05:47;;;;;;;17.02;5.60;;;12.30;99.90;;;;;;6191877;23;20076;-64
2023/05/28 05:08:13;;;;;;;15.52;5.95;;;12.50;99.90;;;;;;6193673;23;20044;-64
2023/05/28 05:10:39;;;;;;;17.83;7.38;;;12.40;99.90;;;;;;6192964;23;20028;-64
2023/05/28 05:13:05;;;;;;;22.50;7.55;;;12.50;99.90;;;;;;6165763;23;20028;-64
2023/05/28 05:15:32;;;;;;;13.57;5.30;;;12.70;99.90;;;;;;6193641;23;20017;-64
2023/05/28 05:17:58;;;;;;;14.38;5.30;;;12.70;99.90;;;;;;6191611;23;20028;-64
2023/05/28 05:20:26;;;;;;;15.05;5.93;;;12.80;99.90;;;;;;6167280;23;20021;-64
2023/05/28 05:22:52;;;;;;;14.93;5.53;;;12.90;99.90;;;;;;6191688;23;20013;-64
2023/05/28 05:25:18;;;;;;;11.07;5.50;;;13.00;99.90;;;;;;6193295;23;20021;-64
2023/05/28 05:27:44;;;;;;;16.98;5.88;;;13.00;99.90;;;;;;6192445;23;20035;-64
2023/05/28 05:30:10;;;;;;;13.55;5.53;;;13.10;99.90;;;;;;6192132;23;20075;-64
2023/05/28 05:32:36;;;;;;;16.58;6.05;;;13.10;99.90;;;;;;6193583;23;20848;-63
2023/05/28 05:35:02;;;;;;;14.15;5.57;;;13.20;99.90;;;;;;6189883;23;20025;-64
2023/05/28 05:37:28;;;;;;;14.45;6.35;;;13.20;99.90;;;;;;6192856;23;20017;-64
2023/05/28 05:39:54;;;;;;;15.40;6.95;;;13.30;99.90;;;;;;6190078;23;20032;-65
2023/05/28 05:42:23;;;;;;;14.20;5.63;;;13.30;99.90;;;;;;6192619;23;20025;-64
2023/05/28 05:44:50;;;;;;;11.85;5.43;;;13.30;99.90;;;;;;6191117;23;20028;-64
2023/05/28 05:47:16;;;;;;;11.48;5.82;;;13.30;99.90;;;;;;6191539;23;20021;-64
2023/05/28 05:49:42;;;;;;;12.45;5.65;;;13.40;99.90;;;;;;6192779;23;20500;-64
2023/05/28 05:52:08;;;;;;;14.68;5.90;;;13.40;99.90;;;;;;6163476;23;20021;-64
2023/05/28 05:54:33;;;;;;;15.07;5.68;;;13.50;99.90;;;;;;6192682;23;20052;-64
2023/05/28 05:57:02;;;;;;;17.73;5.70;;;13.60;99.90;;;;;;6189881;23;20017;-64
2023/05/28 05:59:28;;;;;;;11.52;4.63;;;13.70;99.90;;;;;;6166095;23;20020;-64
2023/05/28 06:01:54;;;;;;;18.63;6.00;;;13.80;99.90;;;;;;6190960;23;20447;-64
2023/05/28 06:04:20;;;;;;;13.63;5.05;;;13.90;99.90;;;;;;6165350;23;20098;-64
2023/05/28 06:06:46;;;;;;;13.40;5.55;;;14.00;99.90;;;;;;6192662;23;20028;-64
2023/05/28 06:09:11;;;;;;;16.80;4.95;;;14.00;99.90;;;;;;6190317;23;20028;-64
2023/05/28 06:11:38;;;;;;;12.43;5.00;;;14.20;99.90;;;;;;6192609;23;20024;-64
2023/05/28 06:14:04;;;;;;;15.23;5.50;;;14.20;99.90;;;;;;6189888;23;20021;-64
2023/05/28 06:16:30;;;;;;;12.48;5.07;;;14.30;99.90;;;;;;6166350;23;20028;-64
2023/05/28 06:18:56;;;;;;;12.10;4.88;;;14.40;99.90;;;;;;6190767;23;20040;-64
2023/05/28 06:21:21;;;;;;;16.75;5.80;;;14.50;99.90;;;;;;6192134;23;20028;-64
2023/05/28 06:23:47;;;;;;;15.82;5.38;;;14.70;99.90;;;;;;6192233;23;20027;-64
2023/05/28 06:26:13;;;;;;;11.30;4.80;;;14.80;99.90;;;;;;6190352;23;20021;-64
2023/05/28 06:28:39;;;;;;;10.68;4.10;;;14.90;99.90;;;;;;6191772;23;20029;-64
2023/05/28 06:31:04;;;;;;;14.98;4.50;;;15.00;99.90;;;;;;6189552;23;20021;-64
2023/05/28 06:33:30;;;;;;;11.73;3.70;;;15.10;99.90;;;;;;6191821;23;20068;-64
2023/05/28 06:35:56;;;;;;;8.63;4.22;;;15.10;99.90;;;;;;6189465;23;20040;-64
2023/05/28 06:38:22;;;;;;;9.43;4.50;;;15.30;99.90;;;;;;6192044;23;20021;-65
2023/05/28 06:40:47;;;;;;;9.35;3.80;;;15.30;99.90;;;;;;6164110;23;20032;-64
2023/05/28 06:43:13;;;;;;;12.15;4.20;;;15.20;99.90;;;;;;6190420;23;20045;-64
2023/05/28 06:45:39;;;;;;;13.05;4.20;;;15.30;99.90;;;;;;6191956;23;20021;-63
2023/05/28 06:48:05;;;;;;;16.45;4.25;;;15.20;99.90;;;;;;6189675;23;20017;-63
2023/05/28 06:50:31;;;;;;;13.32;4.32;;;15.20;99.90;;;;;;6192139;23;20028;-64
2023/05/28 06:52:57;;;;;;;10.88;4.05;;;15.20;99.90;;;;;;6189316;23;20012;-65
2023/05/28 06:55:23;;;;;;;10.15;4.13;;;15.30;99.90;;;;;;6191560;23;20024;-64
2023/05/28 06:57:48;;;;;;;9.18;3.72;;;15.40;99.90;;;;;;6190737;23;20031;-64
2023/05/28 07:00:16;;;;;;;8.45;3.88;;;15.40;99.90;;;;;;6190502;23;20052;-64
2023/05/28 07:02:46;;;;;;;11.10;4.20;;;15.40;99.90;;;;;;6192213;23;20021;-64
2023/05/28 07:05:12;;;;;;;8.95;4.00;;;15.50;99.90;;;;;;6189424;23;20092;-64
2023/05/28 07:07:38;;;;;;;14.43;3.78;;;15.60;99.90;;;;;;6192060;23;20017;-64
2023/05/28 07:10:04;;;;;;;12.40;4.10;;;15.60;99.90;;;;;;6189032;23;20048;-64
2023/05/28 07:12:30;;;;;;;9.57;3.88;;;15.70;99.90;;;;;;6192149;23;20012;-64
2023/05/28 07:14:56;;;;;;;10.35;3.80;;;15.80;99.90;;;;;;6190792;23;20025;-63
2023/05/28 07:17:21;;;;;;;10.13;3.78;;;15.90;99.90;;;;;;6190308;23;20080;-64
2023/05/28 07:19:50;;;;;;;12.35;4.18;;;16.10;99.90;;;;;;6165066;23;20051;-64
2023/05/28 07:22:16;;;;;;;14.07;4.97;;;16.20;99.90;;;;;;6188966;23;20032;-64
2023/05/28 07:24:42;;;;;;;16.30;5.15;;;16.30;99.90;;;;;;6191114;23;20028;-64
2023/05/28 07:27:08;;;;;;;9.38;3.53;;;16.40;99.90;;;;;;6189110;23;20765;-64
2023/05/28 07:29:35;;;;;;;9.85;3.95;;;16.50;99.90;;;;;;6191710;23;20017;-63
2023/05/28 07:32:01;;;;;;;15.13;4.40;;;16.60;99.90;;;;;;6190412;23;20024;-64
2023/05/28 07:34:27;;;;;;;11.95;3.35;;;16.60;99.90;;;;;;6190590;23;20052;-64
2023/05/28 07:36:53;;;;;;;17.23;4.40;;;16.60;99.90;;;;;;6192042;23;20024;-64
2023/05/28 07:39:19;;;;;;;10.35;4.25;;;16.70;99.90;;;;;;6188919;23;20616;-64
2023/05/28 07:41:44;;;;;;;12.05;4.63;;;16.80;99.90;;;;;;6190895;23;20132;-64
2023/05/28 07:44:10;;;;;;;14.43;4.07;;;16.90;99.90;;;;;;6189429;23;20021;-66
2023/05/28 07:46:37;;;;;;;10.85;4.00;;;16.90;99.90;;;;;;6165356;23;20028;-64
2023/05/28 07:49:03;;;;;;;10.52;3.70;;;16.90;99.90;;;;;;6190220;23;21013;-64
2023/05/28 07:51:28;;;;;;;10.60;5.05;;;17.00;99.90;;;;;;6190816;23;20515;-64
2023/05/28 07:53:54;;;;;;;13.18;5.25;;;17.00;99.90;;;;;;6191338;23;20028;-65
2023/05/28 07:56:24;;;;;;;8.30;4.30;;;17.10;99.90;;;;;;6189379;23;20025;-64
2023/05/28 07:58:50;;;;;;;9.30;4.05;;;17.10;99.90;;;;;;6192122;23;20032;-64
2023/05/28 08:01:16;;;;;;;15.40;4.47;;;17.20;99.90;;;;;;6189288;23;20035;-64
2023/05/28 08:03:42;;;;;;;13.18;4.97;;;17.30;99.90;;;;;;6192275;23;20028;-64
2023/05/28 08:06:11;;;;;;;8.05;3.65;;;17.40;99.90;;;;;;6190273;23;20020;-64
2023/05/28 08:08:36;;;;;;;15.05;4.53;;;17.40;99.90;;;;;;6190752;23;20096;-64
2023/05/28 08:11:02;;;;;;;10.32;4.57;;;17.50;99.90;;;;;;6192067;23;20028;-64
2023/05/28 08:13:28;;;;;;;8.60;3.20;;;17.50;99.90;;;;;;6162766;23;20020;-64
2023/05/28 08:15:54;;;;;;;11.48;4.75;;;17.60;99.90;;;;;;6191661;23;20032;-64
2023/05/28 08:18:20;;;;;;;12.85;4.22;;;17.60;99.90;;;;;;6189351;23;20024;-63
2023/05/28 08:20:46;;;;;;;14.50;3.63;;;17.60;99.90;;;;;;6191930;23;20017;-64
2023/05/28 08:23:12;;;;;;;15.50;4.55;;;17.70;99.90;;;;;;6189725;23;20085;-64
2023/05/28 08:25:37;;;;;;;18.55;3.92;;;17.80;99.90;;;;;;6190711;23;20041;-64
2023/05/28 08:28:04;;;;;;;12.90;4.90;;;17.80;99.90;;;;;;6191529;23;20088;-64
2023/05/28 08:30:30;;;;;;;14.63;4.07;;;17.90;99.90;;;;;;6189265;23;20017;-64
2023/05/28 08:32:56;;;;;;;9.35;4.07;;;18.10;99.90;;;;;;6191524;23;20072;-64
2023/05/28 08:35:22;;;;;;;14.00;4.63;;;18.00;99.90;;;;;;6162249;23;20039;-64
2023/05/28 08:37:49;;;;;;;11.52;4.68;;;18.10;99.90;;;;;;6191335;23;20052;-64
2023/05/28 08:40:15;;;;;;;11.15;4.28;;;18.20;99.90;;;;;;6162617;23;20144;-64
2023/05/28 08:42:43;;;;;;;9.57;3.50;;;18.20;99.90;;;;;;6190459;23;20476;-65
2023/05/28 08:45:10;;;;;;;13.60;4.45;;;18.30;99.90;;;;;;6190603;23;20021;-64
2023/05/28 08:47:37;;;;;;;13.13;4.75;;;18.40;99.90;;;;;;6189299;23;20020;-64
2023/05/28 08:50:05;;;;;;;10.20;3.83;;;18.30;99.90;;;;;;6191477;23;20027;-64
2023/05/28 08:52:32;;;;;;;8.48;3.85;;;18.40;99.90;;;;;;6188675;23;20013;-65
2023/05/28 08:54:59;;;;;;;11.93;3.83;;;18.40;99.90;;;;;;6191022;23;20065;-64
2023/05/28 08:57:32;;;;;;;12.40;3.83;;;18.50;99.90;;;;;;6189186;23;20025;-64
2023/05/28 08:59:59;;;;;;;8.40;4.03;;;18.50;99.90;;;;;;6190768;23;20398;-64
2023/05/28 09:02:26;;;;;;;9.90;4.47;;;18.60;99.90;;;;;;6191208;23;20029;-64
2023/05/28 09:04:53;;;;;;;12.35;3.92;;;18.60;99.90;;;;;;6189276;23;20032;-64
2023/05/28 09:07:19;;;;;;;11.10;4.28;;;18.50;99.90;;;;;;6193514;23;20516;-64
2023/05/28 09:09:45;;;;;;;10.68;4.18;;;18.70;99.90;;;;;;6190454;23;20025;-63
2023/05/28 09:12:12;;;;;;;8.98;4.32;;;18.80;99.90;;;;;;6193716;23;20056;-65
2023/05/28 09:14:40;;;;;;;10.98;4.15;;;18.80;99.90;;;;;;6191576;23;20017;-65
2023/05/28 09:17:09;;;;;;;8.05;3.85;;;18.90;99.90;;;;;;6192538;23;20017;-64
2023/05/28 09:19:36;;;;;;;9.32;4.63;;;18.90;99.90;;;;;;6192830;23;20020;-65
2023/05/28 09:22:03;;;;;;;11.77;3.72;;;18.90;99.90;;;;;;6190624;23;20013;-64
2023/05/28 09:24:33;;;;;;;12.82;5.07;;;18.90;99.90;;;;;;6166456;23;20017;-64
2023/05/28 09:27:00;;;;;;;10.98;4.50;;;18.90;99.90;;;;;;6190775;23;20096;-65
2023/05/28 09:29:26;;;;;;;9.57;3.95;;;19.00;99.90;;;;;;6193068;23;20065;-66
2023/05/28 09:31:56;;;;;;;11.40;4.50;;;19.00;99.90;;;;;;6191269;23;20343;-65
2023/05/28 09:34:29;;;;;;;9.90;4.53;;;19.00;99.90;;;;;;6191818;23;20036;-65
2023/05/28 09:37:04;;;;;;;12.25;5.47;;;19.10;99.90;;;;;;6193081;23;20032;-65
2023/05/28 09:39:31;;;;;;;14.75;4.50;;;19.10;99.90;;;;;;6190088;23;20057;-65
2023/05/28 09:42:12;;;;;;;14.50;4.38;;;19.10;99.90;;;;;;6192898;23;20115;-65
2023/05/28 09:44:44;;;;;;;10.98;4.55;;;19.20;99.90;;;;;;6190868;23;20088;-64
2023/05/28 09:47:13;;;;;;;;;;;19.30;99.90;;;;;;6192404;23;20086;-65
2023/05/28 09:49:39;;;;;;;13.93;4.15;;;19.30;99.90;;;;;;6192409;23;19931;-65
2023/05/28 09:52:08;;;;;;;11.70;4.35;;;19.30;99.90;;;;;;6189796;23;20017;-66
2023/05/28 09:54:35;;;;;;;12.73;5.07;;;19.30;99.90;;;;;;6192606;23;20029;-66
2023/05/28 09:57:02;;;;;;;10.05;4.05;;;19.40;99.90;;;;;;6189910;23;20021;-65
2023/05/28 09:59:30;;;;;;;9.45;4.53;;;19.50;99.90;;;;;;6192758;23;20029;-65
2023/05/28 10:02:00;;;;;;;9.90;4.75;;;19.50;99.90;;;;;;6191020;23;20021;-65
2023/05/28 10:04:37;;;;;;;10.55;4.00;;;19.40;99.90;;;;;;6191270;23;20025;-65
2023/05/28 10:07:12;;;;;;;12.68;4.68;;;19.50;99.90;;;;;;6192705;23;20025;-65
2023/05/28 10:09:39;;;;;;;11.90;4.15;;;19.50;99.90;;;;;;6190191;23;20149;-65
2023/05/28 10:12:12;;;;;;;9.95;4.32;;;19.50;99.90;;;;;;6192635;23;20021;-65
2023/05/28 10:14:39;;;;;;;9.20;4.40;;;19.70;99.90;;;;;;6190725;23;20025;-65
2023/05/28 10:17:08;;;;;;;13.45;4.63;;;19.80;99.90;;;;;;6191255;23;20025;-66
2023/05/28 10:19:35;;;;;;;8.93;4.30;;;19.80;99.90;;;;;;6191498;23;20024;-65
2023/05/28 10:22:01;;;;;;;10.48;4.07;;;19.70;99.90;;;;;;6189709;23;20017;-65
2023/05/28 10:24:27;;;;;;;9.30;4.40;;;19.70;99.90;;;;;;6192416;23;20052;-66
2023/05/28 10:26:53;;;;;;;9.70;4.38;;;19.80;99.90;;;;;;6189763;23;20020;-65
2023/05/28 10:29:20;;;;;;;7.35;4.03;;;19.80;99.90;;;;;;6165665;23;20051;-66
2023/05/28 10:32:02;;;;;;;10.68;3.92;;;19.90;99.90;;;;;;6190065;23;20069;-65
2023/05/28 10:34:36;;;;;;;13.10;4.18;;;19.90;99.90;;;;;;6190662;23;20025;-65
2023/05/28 10:37:07;;;;;;;13.20;4.57;;;20.10;99.90;;;;;;6192400;23;20025;-65
2023/05/28 10:39:41;;;;;;;11.10;4.57;;;20.00;99.90;;;;;;6189597;23;20775;-65
2023/05/28 10:42:08;;;;;;;7.85;3.83;;;20.00;99.90;;;;;;6192182;23;20013;-65
2023/05/28 10:45:08;;;;;;;10.85;4.43;;;20.10;99.90;;;;;;6189884;23;20021;-66
2023/05/28 10:47:41;;;;;;;7.45;3.75;;;20.10;99.90;;;;;;6189680;23;20088;-66
2023/05/28 10:50:15;;;;;;;8.40;3.88;;;20.10;99.90;;;;;;6192414;23;20020;-65
2023/05/28 10:52:41;;;;;;;7.00;4.00;;;20.10;99.90;;;;;;6189551;23;20024;-66
2023/05/28 10:55:08;;;;;;;9.52;4.80;;;20.20;99.90;;;;;;6192061;23;20032;-65
2023/05/28 10:58:05;;;;;;;10.10;4.13;;;20.30;99.90;;;;;;6190708;23;20025;-66
2023/05/28 11:00:31;;;;;;;10.45;4.68;;;20.20;99.90;;;;;;6189503;23;20043;-66
2023/05/28 11:02:56;;;;;;;10.20;4.38;;;20.20;99.90;;;;;;6192010;23;20025;-64
2023/05/28 11:05:25;;;;;;;9.13;4.05;;;20.30;99.90;;;;;;6189682;23;20373;-65
2023/05/28 11:07:52;;;;;;;13.75;4.43;;;20.40;99.90;;;;;;6192394;23;20061;-66
2023/05/28 11:10:18;;;;;;;12.82;4.50;;;20.40;99.90;;;;;;6190482;23;20013;-64
2023/05/28 11:12:47;;;;;;;8.95;3.95;;;20.50;99.90;;;;;;6191638;23;20084;-65
2023/05/28 11:15:13;;;;;;;11.05;3.90;;;20.50;99.90;;;;;;6191651;23;20048;-65
2023/05/28 11:17:44;;;;;;;12.05;4.05;;;20.50;99.90;;;;;;6190043;23;20144;-66
2023/05/28 11:20:24;;;;;;;8.38;3.40;;;20.60;99.90;;;;;;6192466;23;20060;-65
2023/05/28 11:22:51;;;;;;;12.10;4.03;;;20.70;99.90;;;;;;6189833;23;20013;-66
2023/05/28 11:25:19;;;;;;;7.93;4.03;;;20.70;99.90;;;;;;6192365;23;20363;-65
2023/05/28 11:27:47;;;;;;;9.75;3.85;;;20.70;99.90;;;;;;6191084;23;20025;-65
2023/05/28 11:30:15;;;;;;;10.02;4.28;;;20.80;99.90;;;;;;6189683;23;20494;-65
2023/05/28 11:32:43;;;;;;;8.23;4.18;;;20.70;99.70;;;;;;6191107;23;20051;-65
2023/05/28 11:35:13;;;;;;;11.05;3.95;;;20.60;99.90;;;;;;6188964;23;20431;-63
2023/05/28 11:37:40;;;;;;;8.32;4.18;;;20.70;99.40;;;;;;6191383;23;20063;-63
2023/05/28 11:40:11;;;;;;;9.20;3.90;;;20.70;99.70;;;;;;6189388;23;20113;-64
2023/05/28 11:42:39;;;;;;;7.18;3.47;;;20.70;99.90;;;;;;6191641;23;20036;-64
2023/05/28 11:45:07;;;;;;;6.53;3.72;;;20.60;99.20;;;;;;6191203;23;20021;-64
2023/05/28 11:47:34;;;;;;;9.73;3.47;;;20.60;98.60;;;;;;6189693;23;20025;-66
2023/05/28 11:50:12;;;;;;;10.15;3.83;;;20.60;99.50;;;;;;6191842;23;20548;-63
2023/05/28 11:52:38;;;;;;;9.70;3.92;;;20.70;98.90;;;;;;6189310;23;20025;-63
2023/05/28 11:55:05;;;;;;;13.23;4.40;;;20.70;97.50;;;;;;6191752;23;20024;-64
2023/05/28 11:57:38;;;;;;;7.10;3.45;;;20.70;97.70;;;;;;6189946;23;20307;-63
2023/05/28 12:00:11;;;;;;;7.28;2.88;;;20.60;97.70;;;;;;6190324;23;20025;-64
2023/05/28 12:02:51;;;;;;;8.85;3.60;;;20.80;98.70;;;;;;6191814;23;20021;-63
2023/05/28 12:05:20;;;;;;;12.02;4.00;;;20.70;97.20;;;;;;6189101;23;20036;-64
2023/05/28 12:07:51;;;;;;;5.43;2.80;;;20.70;96.70;;;;;;6191442;23;20075;-64
2023/05/28 12:10:22;;;;;;;8.60;3.35;;;20.80;97.20;;;;;;6189680;23;20017;-64
2023/05/28 12:12:49;;;;;;;5.82;3.40;;;20.80;97.60;;;;;;6191034;23;20021;-64
2023/05/28 12:15:27;;;;;;;6.35;2.90;;;20.90;97.30;;;;;;6191218;23;20032;-63
2023/05/28 12:17:56;;;;;;;7.28;3.65;;;20.90;97.30;;;;;;6189232;23;20017;-64
2023/05/28 12:20:21;;;;;;;6.03;3.03;;;21.00;97.00;;;;;;6191786;23;20045;-64
2023/05/28 12:23:03;;;;;;;6.75;3.40;;;21.10;95.70;;;;;;6188995;23;20050;-64
2023/05/28 12:25:43;;;;;;;8.27;3.20;;;21.00;93.60;;;;;;6191136;23;20072;-63
2023/05/28 12:28:11;;;;;;;4.97;3.03;;;21.10;94.60;;;;;;6191985;23;20051;-64
2023/05/28 12:30:39;;;;;;;5.13;2.50;;;21.10;93.40;;;;;;6189023;23;20587;-63
2023/05/28 12:33:05;;;;;;;7.00;3.08;;;21.10;94.00;;;;;;6191503;23;20036;-63
2023/05/28 12:35:31;;;;;;;7.55;3.28;;;21.00;93.90;;;;;;6189228;23;20017;-64
2023/05/28 12:37:56;;;;;;;6.28;2.75;;;21.10;93.80;;;;;;6191993;23;20025;-64
2023/05/28 12:40:22;;;;;;;5.35;2.88;;;21.10;92.50;;;;;;6191445;23;20056;-64